WEATHER DATA

TODAY
Time Temp. Dewp. Hum. Bar. 1h Prec. 24h Prec.
00:16 -0.8 -2.5 87 1030 0.0000 0.0000
00:26 -0.9 -2.6 87 1029.9 0.0000 0.0000
00:36 -0.9 -2.6 87 1029.9 0.0000 0.0000
00:46 -0.9 -2.6 87 1029.9 0.0000 0.0000
00:56 -0.9 -2.6 87 1029.7 0.0000 0.0000
01:06 -0.9 -2.6 87 1029.6 0.0000 0.0000
01:16 -0.9 -2.6 87 1029.4 0.0000 0.0000
01:27 -0.9 -2.6 87 1029.4 0.0000 0.0000
01:36 -0.9 -2.6 87 1029.4 0.0000 0.0000
01:46 -0.9 -2.6 87 1029.4 0.0000 0.0000
01:56 -0.9 -2.6 87 1029.3 0.0000 0.0000
02:07 -1 -2.7 87 1029.4 0.0000 0.0000
02:16 -1.2 -2.9 87 1029.5 0.0000 0.0000
02:26 -1.2 -2.9 87 1029.5 0.0000 0.0000
02:37 -1.2 -2.7 88 1029.5 0.0000 0.0000
02:47 -1.2 -2.7 88 1029.6 0.0000 0.0000
02:57 -1.3 -3 87 1029.6 0.0000 0.0000
03:07 -1.3 -2.8 88 1029.5 0.0000 0.0000
03:17 -1.4 -3.1 87 1029.6 0.0000 0.0000
03:27 -1.6 -3.3 87 1029.5 0.0000 0.0000
03:37 -1.7 -3.2 88 1029.6 0.0000 0.0000
03:48 -1.7 -3.2 88 1029.4 0.0000 0.0000
03:57 -1.8 -3.3 88 1029.2 0.0000 0.0000
04:07 -1.8 -3.3 88 1029.1 0.0000 0.0000
04:17 -1.8 -3.3 88 1029 0.0000 0.0000
04:28 -1.8 -3.3 88 1029.2 0.0000 0.0000
04:37 -1.8 -3.3 88 1029.2 0.0000 0.0000
04:47 -1.7 -3.2 88 1029.1 0.0000 0.0000
04:58 -1.7 -3.2 88 1029 0.0000 0.0000
05:08 -1.8 -3.3 88 1029.1 0.0000 0.0000
05:18 -1.8 -3.3 88 1029 0.0000 0.0000
05:27 -1.8 -3.3 88 1028.9 0.0000 0.0000
05:38 -1.9 -3.4 88 1028.9 0.0000 0.0000
05:48 -1.9 -3.4 88 1028.9 0.0000 0.0000
05:58 -1.9 -3.4 88 1029.1 0.0000 0.0000
06:09 -1.9 -3.4 88 1029.4 0.0000 0.0000
06:18 -2 -3.5 88 1029.5 0.0000 0.0000
06:28 -1.9 -3.4 88 1029.4 0.0000 0.0000
06:38 -2.1 -3.6 88 1029.2 0.0000 0.0000
06:49 -2.2 -3.7 88 1029 0.0000 0.0000
06:58 -2.2 -3.7 88 1029 0.0000 0.0000
07:08 -2.1 -3.6 88 1029 0.0000 0.0000
07:19 -2.1 -3.6 88 1029.1 0.0000 0.0000
07:29 -2 -3.5 88 1029 0.0000 0.0000
07:39 -2.1 -3.6 88 1028.8 0.0000 0.0000
07:48 -2.3 -3.8 88 1029 0.0000 0.0000
07:59 -2.4 -3.9 88 1029.1 0.0000 0.0000
08:09 -2.6 -4.1 88 1029.1 0.0000 0.0000
08:19 -2.7 -4.2 88 1029.3 0.0000 0.0000
08:30 -2.9 -4.4 88 1029.3 0.0000 0.0000
08:39 -2.8 -4.3 88 1029.1 0.0000 0.0000
08:49 -2.7 -4.2 88 1029 0.0000 0.0000
08:59 -3 -4.5 88 1029.3 0.0000 0.0000
09:10 -3.1 -4.6 88 1029.5 0.0000 0.0000
09:20 -3 -4.4 89 1029.7 0.0000 0.0000
09:29 -3.1 -4.5 89 1029.9 0.0000 0.0000
09:40 -3 -4.4 89 1030.1 0.0000 0.0000
09:50 -3 -4.4 89 1030.1 0.0000 0.0000
10:00 -2.7 -4.1 89 1030 0.0000 0.0000
10:10 -2.7 -4.1 89 1029.9 0.0000 0.0000
10:20 -2.7 -4.1 89 1029.9 0.0000 0.0000
10:30 -2.7 -4.2 88 1029.9 0.0000 0.0000
10:40 -2.6 -4.1 88 1029.8 0.0000 0.0000
10:50 -2.5 -4 88 1029.9 0.0000 0.0000
11:00 -2.3 -3.7 89 1029.8 0.0000 0.0000
11:10 -1.8 -3.2 89 1029.8 0.0000 0.0000
11:20 -1.6 -3.1 88 1029.8 0.0000 0.0000
11:31 -1.1 -2.6 88 1029.9 0.0000 0.0000
11:41 -0.8 -2.3 88 1029.8 0.0000 0.0000
11:50 -0.6 -2.1 88 1029.9 0.0000 0.0000
12:01 -0.3 -1.8 88 1029.8 0.0000 0.0000
12:11 0 -1.5 88 1029.7 0.0000 0.0000
12:21 0.3 -1.3 88 1029.3 0.0000 0.0000
12:31 0.5 -1.2 87 1029.1 0.0000 0.0000
12:41 0.7 -1.1 87 1029.1 0.0000 0.0000
12:51 0.8 -1 87 1029 0.0000 0.0000
13:01 0.8 -1 87 1029 0.0000 0.0000
13:11 0.7 -1.1 87 1029 0.0000 0.0000
13:21 0.5 -1.4 86 1028.9 0.0000 0.0000
13:31 0.4 -1.5 86 1029 0.0000 0.0000
13:57 0.5 -1.2 87 1028.8 0.0000 0.0000
14:07 0.8 -1 87 1028.8 0.0000 0.0000
14:16 0.9 -1 86 1028.7 0.0000 0.0000
14:27 1.2 -0.8 86 1028.7 0.0000 0.0000
14:37 1.3 -0.7 86 1028.5 0.0000 0.0000
14:47 1.2 -0.8 86 1028.5 0.0000 0.0000
14:57 1.2 -0.8 86 1028.4 0.0000 0.0000
15:07 1.1 -1 85 1028.5 0.0000 0.0000
15:17 1 -1.1 85 1028.4 0.0000 0.0000
15:27 0.8 -1.3 85 1028.5 0.0000 0.0000
15:38 0.6 -1.4 85 1028.5 0.0000 0.0000
15:47 0.4 -1.6 85 1028.5 0.0000 0.0000
15:57 0.2 -1.8 85 1028.3 0.0000 0.0000
16:07 0 -1.8 86 1028.7 0.0000 0.0000
16:18 -0.1 -1.9 86 1028.9 0.0000 0.0000
16:28 -0.3 -2.1 86 1029.1 0.0000 0.0000
16:37 -0.5 -2.3 86 1029 0.0000 0.0000
16:48 -0.6 -2.4 86 1029.1 0.0000 0.0000
16:58 -0.7 -2.5 86 1029 0.0000 0.0000
17:08 -0.7 -2.5 86 1029 0.0000 0.0000
17:18 -0.5 -2.3 86 1029 0.0000 0.0000
17:28 -0.4 -2.2 86 1029 0.0000 0.0000
17:38 -0.3 -2.1 86 1028.8 0.0000 0.0000
17:48 -0.4 -2.2 86 1028.9 0.0000 0.0000
17:59 -0.5 -2.3 86 1029.1 0.0000 0.0000
18:08 -0.5 -2.3 86 1029.2 0.0000 0.0000
18:18 -0.4 -2.1 87 1029.3 0.0000 0.0000
18:28 0.1 -1.6 87 1029.3 0.0000 0.0000
18:39 0.5 -1.2 87 1029.3 0.0000 0.0000

DAY STATISTIC

2022-01-27
TEMPERATURE
AVERAGE
-1.1
HIGH
1.3
14:37
LOW
-3.1
09:10
PRESSURE
AVERAGE
1029.3
HIGH
1030.1
09:40
LOW
1028.3
15:57
DEWPOINT
AVERAGE
-2.7
HIGH
-0.7
14:37
LOW
-4.6
09:10
HUMIDITY
AVERAGE
87
HIGH
89
09:20
LOW
85
15:07
PRECIPITATION
RAIN HOUR
0.0
RAIN DAY
0.0
TEMPERATURE (°C)
LOW
-3.1
HIGH
1.3
AVERAGE
-1.1
PRESSURE (hpa)
LOW
1028.3
HIGH
1030.1
AVERAGE
1029.3
DEVICE